Time;durP1;ratioP1;P1;durP2;ratioP2;P2;SDS_P1;SDS_P2;PMS_P1;PMS_P2;Temp;Humidity;BMP_temperature;BMP_pressure;BME280_temperature;BME280_humidity;BME280_pressure;Samples;Min_cycle;Max_cycle;Signal;HPM_P1;HPM_P2
2022/01/19 00:01:50;;;;;;;10.43;6.70;;;1.30;99.90;;;;;;4949651;28;20180;-59
2022/01/19 00:04:16;;;;;;;14.70;7.63;;;1.30;99.90;;;;;;4946806;28;20216;-59
2022/01/19 00:06:42;;;;;;;14.23;7.13;;;1.40;99.90;;;;;;4946354;28;20186;-59
2022/01/19 00:09:07;;;;;;;13.93;7.20;;;1.40;99.90;;;;;;4947773;28;20188;-59
2022/01/19 00:11:33;;;;;;;14.03;7.63;;;1.30;99.90;;;;;;4947935;28;20187;-58
2022/01/19 00:13:59;;;;;;;18.37;8.20;;;1.30;99.90;;;;;;4950098;28;20201;-59
2022/01/19 00:16:25;;;;;;;17.27;7.80;;;1.20;99.90;;;;;;4949001;28;20565;-59
2022/01/19 00:18:51;;;;;;;15.83;8.33;;;1.20;99.90;;;;;;4948173;29;20261;-59
2022/01/19 00:21:16;;;;;;;16.50;8.67;;;1.10;99.90;;;;;;4949684;28;20173;-59
2022/01/19 00:23:42;;;;;;;15.93;8.33;;;1.10;99.90;;;;;;4947101;28;20488;-59
2022/01/19 00:26:08;;;;;;;14.03;7.97;;;1.00;99.90;;;;;;4950153;28;20185;-58
2022/01/19 00:28:34;;;;;;;19.33;8.30;;;1.00;99.90;;;;;;4948719;28;20186;-59
2022/01/19 00:30:59;;;;;;;23.03;8.30;;;1.00;99.90;;;;;;4947031;28;20434;-59
2022/01/19 00:33:25;;;;;;;14.37;8.33;;;1.00;99.90;;;;;;4944355;28;21599;-58
2022/01/19 00:35:51;;;;;;;14.67;8.27;;;1.00;99.90;;;;;;4948050;28;20167;-58
2022/01/19 00:38:18;;;;;;;22.07;8.90;;;0.90;99.90;;;;;;4947896;28;20178;-59
2022/01/19 00:40:44;;;;;;;17.43;8.27;;;0.90;99.90;;;;;;4949348;28;20463;-60
2022/01/19 00:43:11;;;;;;;19.40;9.17;;;0.90;99.90;;;;;;4944249;28;21001;-59
2022/01/19 00:45:36;;;;;;;16.40;8.60;;;0.90;99.90;;;;;;4950281;28;20519;-60
2022/01/19 00:48:02;;;;;;;18.17;8.77;;;0.90;99.90;;;;;;4950975;29;20511;-59
2022/01/19 00:50:29;;;;;;;17.43;8.87;;;0.90;99.90;;;;;;4952486;28;20188;-59
2022/01/19 00:52:55;;;;;;;20.40;8.60;;;0.90;99.90;;;;;;4947274;28;20279;-59
2022/01/19 00:55:23;;;;;;;19.37;8.60;;;0.90;99.90;;;;;;4951287;28;20951;-59
2022/01/19 00:57:49;;;;;;;20.87;8.27;;;0.90;99.90;;;;;;4952340;28;20263;-59
2022/01/19 01:00:25;;;;;;;17.43;9.17;;;1.00;99.90;;;;;;4951439;28;20452;-59
2022/01/19 01:02:50;;;;;;;14.43;8.23;;;1.00;99.90;;;;;;4950339;28;20428;-60
2022/01/19 01:05:16;;;;;;;18.43;8.23;;;1.00;99.90;;;;;;4949130;28;20456;-59
2022/01/19 01:07:42;;;;;;;14.70;8.90;;;1.00;99.90;;;;;;4950685;28;20188;-59
2022/01/19 01:10:10;;;;;;;16.53;8.50;;;1.00;99.90;;;;;;4951570;28;20451;-60
2022/01/19 01:12:53;;;;;;;12.37;8.33;;;1.00;99.90;;;;;;4949271;28;20477;-60
2022/01/19 01:15:48;;;;;;;15.87;9.13;;;1.00;99.90;;;;;;4950170;28;20453;-59
2022/01/19 01:18:20;;;;;;;23.53;8.93;;;1.00;99.90;;;;;;4948130;29;20511;-59
2022/01/19 01:20:49;;;;;;;18.50;10.30;;;1.00;99.90;;;;;;4946691;28;20436;-58
2022/01/19 01:23:15;;;;;;;16.97;9.60;;;1.00;99.90;;;;;;4946227;28;20440;-59
2022/01/19 01:25:41;;;;;;;15.77;9.50;;;1.00;99.90;;;;;;4945748;28;20440;-60
2022/01/19 01:28:07;;;;;;;22.83;10.50;;;1.00;99.90;;;;;;4948104;28;20442;-59
2022/01/19 01:30:34;;;;;;;19.00;9.87;;;1.00;99.90;;;;;;4949407;28;20471;-60
2022/01/19 01:33:00;;;;;;;20.63;10.03;;;1.00;99.90;;;;;;4963881;28;20521;-58
2022/01/19 01:35:25;;;;;;;22.20;10.40;;;1.00;99.90;;;;;;4951374;28;21855;-60
2022/01/19 01:37:51;;;;;;;13.80;9.13;;;1.00;99.90;;;;;;4948429;28;20216;-60
2022/01/19 01:40:17;;;;;;;18.30;10.20;;;1.00;99.90;;;;;;4951044;28;20170;-58
2022/01/19 01:42:44;;;;;;;15.70;10.23;;;1.00;99.90;;;;;;4950424;28;20253;-60
2022/01/19 01:45:13;;;;;;;23.30;10.63;;;1.10;99.90;;;;;;4952373;28;20468;-60
2022/01/19 01:47:51;;;;;;;20.07;10.23;;;1.10;99.90;;;;;;4948232;28;21015;-60
2022/01/19 01:55:27;;;;;;;25.77;11.40;;;1.10;99.90;;;;;;4949060;28;20240;-59
2022/01/19 01:57:52;;;;;;;17.23;10.63;;;1.10;99.90;;;;;;4965432;28;20518;-60
2022/01/19 02:00:22;;;;;;;23.37;11.27;;;1.10;99.90;;;;;;4949582;28;21137;-60
2022/01/19 02:02:48;;;;;;;19.10;11.90;;;1.10;99.90;;;;;;4950279;28;20655;-60
2022/01/19 02:05:17;;;;;;;30.57;11.20;;;1.10;99.90;;;;;;4949618;28;20461;-59
2022/01/19 02:08:00;;;;;;;23.33;11.07;;;1.10;99.90;;;;;;4944694;28;20449;-57
2022/01/19 02:15:57;;;;;;;21.73;11.53;;;1.10;99.90;;;;;;4949872;28;20569;-58
2022/01/19 02:23:54;;;;;;;22.57;11.73;;;1.10;99.90;;;;;;4948789;29;20915;-59
2022/01/19 02:27:10;;;;;;;21.10;11.40;;;1.10;99.90;;;;;;4950248;28;20921;-59
2022/01/19 02:29:23;;;;;;;21.80;10.47;;;1.10;99.90;;;;;;4941689;29;20449;-58
2022/01/19 02:42:35;;;;;;;20.47;10.73;;;1.10;99.90;;;;;;4948959;28;20654;-58
2022/01/19 02:49:55;;;;;;;15.73;9.27;;;1.10;99.90;;;;;;4945787;28;20832;-59
2022/01/19 02:52:23;;;;;;;17.60;10.80;;;1.10;99.90;;;;;;4945420;28;20587;-59
2022/01/19 02:54:49;;;;;;;19.93;10.33;;;1.00;99.90;;;;;;4947725;28;20480;-59
2022/01/19 02:57:16;;;;;;;19.80;11.00;;;1.00;99.90;;;;;;4945913;28;20437;-59
2022/01/19 03:10:12;;;;;;;20.17;11.30;;;1.00;99.90;;;;;;4946392;28;20472;-59
2022/01/19 03:12:38;;;;;;;19.43;11.37;;;1.00;99.90;;;;;;4963622;28;20495;-59
2022/01/19 03:15:06;;;;;;;23.33;11.57;;;1.00;99.90;;;;;;4944965;28;20464;-58
2022/01/19 03:17:31;;;;;;;21.90;11.67;;;1.00;99.90;;;;;;4948995;28;20204;-59
2022/01/19 03:19:57;;;;;;;18.20;10.77;;;1.10;99.90;;;;;;4947069;29;20432;-58
2022/01/19 03:22:29;;;;;;;22.77;12.90;;;1.10;99.90;;;;;;4947803;28;20272;-60
2022/01/19 03:24:55;;;;;;;23.27;11.80;;;1.10;99.90;;;;;;4947412;28;20209;-59
2022/01/19 03:27:21;;;;;;;28.17;11.10;;;1.00;99.90;;;;;;4947480;28;20802;-58
2022/01/19 03:29:46;;;;;;;20.30;11.50;;;1.00;99.90;;;;;;4946956;28;20190;-59
2022/01/19 03:32:12;;;;;;;21.73;12.70;;;1.00;99.90;;;;;;4947420;28;20192;-59
2022/01/19 03:34:41;;;;;;;25.23;12.67;;;1.00;99.90;;;;;;4946865;28;20196;-59
2022/01/19 03:37:07;;;;;;;23.60;13.13;;;1.00;99.90;;;;;;4947480;28;20424;-60
2022/01/19 03:39:34;;;;;;;21.43;11.73;;;1.00;99.90;;;;;;4945811;28;21004;-59
2022/01/19 03:42:00;;;;;;;20.77;11.97;;;1.00;99.90;;;;;;4948072;28;20428;-60
2022/01/19 03:44:26;;;;;;;17.77;11.20;;;1.00;99.90;;;;;;4947290;28;20543;-60
2022/01/19 03:46:58;;;;;;;19.63;10.40;;;0.90;99.90;;;;;;4947416;28;20443;-61
2022/01/19 03:49:29;;;;;;;23.60;11.97;;;1.00;99.90;;;;;;4946349;28;20541;-60
2022/01/19 03:51:58;;;;;;;21.90;11.57;;;1.00;99.90;;;;;;4944897;28;20440;-60
2022/01/19 03:54:29;;;;;;;19.60;11.03;;;0.90;99.90;;;;;;4945595;28;20465;-60
2022/01/19 03:56:54;;;;;;;19.73;11.57;;;0.90;99.90;;;;;;4948329;28;20965;-60
2022/01/19 03:59:21;;;;;;;17.33;11.33;;;0.90;99.90;;;;;;4946809;29;20433;-60
2022/01/19 04:01:46;;;;;;;17.83;10.40;;;0.90;99.90;;;;;;4960447;28;20249;-60
2022/01/19 04:06:57;;;;;;;17.20;11.00;;;0.90;99.90;;;;;;4945198;28;20241;-58
2022/01/19 04:09:24;;;;;;;19.23;11.40;;;0.90;99.90;;;;;;4944369;28;20453;-60
2022/01/19 04:11:50;;;;;;;20.80;10.90;;;0.90;99.90;;;;;;4944850;28;20818;-60
2022/01/19 04:14:22;;;;;;;19.70;11.63;;;0.90;99.90;;;;;;4944850;29;21158;-59
2022/01/19 04:16:49;;;;;;;20.73;11.80;;;0.90;99.90;;;;;;4945527;28;20995;-58
2022/01/19 04:19:27;;;;;;;14.97;9.57;;;0.90;99.90;;;;;;4947490;28;20473;-59
2022/01/19 04:21:55;;;;;;;22.73;11.60;;;0.90;99.90;;;;;;4950935;28;20441;-58
2022/01/19 04:24:21;;;;;;;27.53;12.10;;;0.90;99.90;;;;;;4946194;28;20472;-59
2022/01/19 04:29:32;;;;;;;21.13;12.07;;;0.80;99.90;;;;;;4946669;28;20543;-60
2022/01/19 04:31:57;;;;;;;21.23;12.60;;;0.80;99.90;;;;;;4949564;29;20607;-59
2022/01/19 04:34:23;;;;;;;20.80;12.37;;;0.80;99.90;;;;;;4950895;29;20224;-59
2022/01/19 04:37:09;;;;;;;22.60;10.63;;;0.80;99.90;;;;;;4947599;28;20188;-59
2022/01/19 04:48:07;;;;;;;17.80;11.30;;;0.90;99.90;;;;;;4949869;28;20420;-59
2022/01/19 05:06:45;;;;;;;20.63;12.07;;;1.00;99.90;;;;;;4945504;28;20446;-59
2022/01/19 05:09:26;;;;;;;24.87;13.17;;;1.00;99.90;;;;;;4946245;28;20553;-60
2022/01/19 05:14:36;;;;;;;19.67;12.13;;;0.90;99.90;;;;;;4950360;28;20447;-57
2022/01/19 05:17:02;;;;;;;20.97;12.87;;;0.90;99.90;;;;;;4946651;28;20876;-60
2022/01/19 05:19:27;;;;;;;18.90;12.57;;;0.90;99.90;;;;;;4947663;28;20260;-60
2022/01/19 05:21:53;;;;;;;21.27;11.73;;;0.90;99.90;;;;;;4948628;28;20449;-60
2022/01/19 05:24:18;;;;;;;19.90;10.37;;;0.80;99.90;;;;;;4946491;28;20213;-59
2022/01/19 05:26:46;;;;;;;19.87;11.97;;;0.80;99.90;;;;;;4946984;28;20200;-59
2022/01/19 05:29:11;;;;;;;19.60;12.70;;;0.70;99.90;;;;;;4944836;28;20200;-60
2022/01/19 05:31:37;;;;;;;21.07;12.00;;;0.70;99.90;;;;;;4947853;28;20453;-59
2022/01/19 05:34:03;;;;;;;19.90;12.23;;;0.70;99.90;;;;;;4936418;28;20219;-59
2022/01/19 05:36:29;;;;;;;22.37;12.33;;;0.70;99.90;;;;;;4949913;28;20192;-58
2022/01/19 05:38:54;;;;;;;20.50;12.70;;;0.60;99.90;;;;;;4945880;28;20187;-59
2022/01/19 05:41:21;;;;;;;22.50;11.73;;;0.60;99.90;;;;;;4942837;28;20455;-59
2022/01/19 05:43:47;;;;;;;26.43;13.00;;;0.60;99.90;;;;;;4944763;28;20216;-59
2022/01/19 05:46:13;;;;;;;24.40;13.13;;;0.60;99.90;;;;;;4945710;28;20442;-59
2022/01/19 05:48:39;;;;;;;24.43;12.53;;;0.60;99.90;;;;;;4953809;28;20424;-58
2022/01/19 05:51:05;;;;;;;27.50;13.37;;;0.70;99.90;;;;;;4953709;28;20444;-59
2022/01/19 05:53:31;;;;;;;20.50;12.07;;;0.60;99.90;;;;;;4950095;28;20467;-60
2022/01/19 05:55:57;;;;;;;28.60;14.00;;;0.60;99.90;;;;;;4948292;28;20173;-59
2022/01/19 05:58:23;;;;;;;24.17;12.07;;;0.60;99.90;;;;;;4947035;28;20933;-60
2022/01/19 06:00:49;;;;;;;24.00;13.03;;;0.60;99.90;;;;;;4953434;28;20240;-60
2022/01/19 06:03:16;;;;;;;28.40;14.60;;;0.60;99.90;;;;;;4945228;28;20874;-59
2022/01/19 06:05:42;;;;;;;28.70;14.30;;;0.60;99.90;;;;;;4965050;28;20565;-59
2022/01/19 06:08:18;;;;;;;23.10;13.50;;;0.60;99.90;;;;;;4950216;28;20445;-59
2022/01/19 06:10:48;;;;;;;21.53;12.63;;;0.60;99.90;;;;;;4943329;28;21237;-58
2022/01/19 06:13:18;;;;;;;22.03;12.53;;;0.50;99.90;;;;;;4947468;28;20471;-59
2022/01/19 06:15:45;;;;;;;23.33;12.20;;;0.60;99.90;;;;;;4954216;28;20440;-58
2022/01/19 06:18:11;;;;;;;22.40;13.67;;;0.60;99.90;;;;;;4952721;29;20482;-59
2022/01/19 06:20:38;;;;;;;20.53;12.60;;;0.60;99.90;;;;;;4943907;28;20439;-59
2022/01/19 06:23:04;;;;;;;25.70;12.50;;;0.60;99.90;;;;;;4953539;28;20413;-60
2022/01/19 06:25:30;;;;;;;24.27;12.50;;;0.60;99.90;;;;;;4953274;28;20432;-59
2022/01/19 06:27:56;;;;;;;23.27;13.60;;;0.60;99.90;;;;;;4952548;29;20491;-59
2022/01/19 06:30:22;;;;;;;21.90;12.77;;;0.50;99.90;;;;;;4957903;28;20460;-60
2022/01/19 06:32:48;;;;;;;21.90;12.33;;;0.50;99.90;;;;;;4953502;28;20448;-59
2022/01/19 06:35:14;;;;;;;25.53;14.17;;;0.50;99.90;;;;;;4934152;28;20452;-59
2022/01/19 06:37:39;;;;;;;22.73;13.50;;;0.40;99.90;;;;;;4959371;28;20187;-59
2022/01/19 06:40:07;;;;;;;28.30;14.97;;;0.40;99.90;;;;;;4972178;28;20210;-59
2022/01/19 06:42:33;;;;;;;25.00;14.33;;;0.50;99.90;;;;;;4970778;28;20177;-60
2022/01/19 06:44:59;;;;;;;26.07;13.20;;;0.50;99.90;;;;;;4956886;28;20576;-60
2022/01/19 06:47:24;;;;;;;22.40;12.77;;;0.50;99.90;;;;;;4951826;28;20263;-59
2022/01/19 06:49:50;;;;;;;26.93;13.30;;;0.50;99.90;;;;;;4966841;28;20203;-59
2022/01/19 06:52:16;;;;;;;25.47;14.00;;;0.50;99.90;;;;;;4947491;29;20180;-60
2022/01/19 06:54:41;;;;;;;22.77;13.13;;;0.50;99.90;;;;;;4951462;28;20200;-60
2022/01/19 06:57:07;;;;;;;25.90;13.80;;;0.40;99.90;;;;;;4952564;29;20187;-59
2022/01/19 06:59:33;;;;;;;19.80;12.23;;;0.40;99.90;;;;;;4958597;28;20216;-59
2022/01/19 07:01:59;;;;;;;22.80;12.67;;;0.50;99.90;;;;;;4961691;28;20289;-59
2022/01/19 07:04:25;;;;;;;21.83;14.07;;;0.40;99.90;;;;;;4952046;28;20443;-59
2022/01/19 07:06:51;;;;;;;23.70;13.07;;;0.40;99.90;;;;;;4960111;28;21108;-59
2022/01/19 07:09:16;;;;;;;27.53;14.03;;;0.40;99.90;;;;;;4969885;28;20185;-59
2022/01/19 07:11:42;;;;;;;32.53;16.57;;;0.50;99.90;;;;;;4951618;28;20176;-60
2022/01/19 07:14:08;;;;;;;26.73;14.90;;;0.50;99.90;;;;;;4953744;28;20238;-57
2022/01/19 07:16:34;;;;;;;31.17;15.80;;;0.40;99.90;;;;;;4947175;28;20230;-61
2022/01/19 07:19:00;;;;;;;28.13;14.50;;;0.50;99.90;;;;;;4951139;29;20424;-60
2022/01/19 07:21:26;;;;;;;23.70;13.57;;;0.50;99.90;;;;;;4949748;28;20428;-59
2022/01/19 07:23:52;;;;;;;27.43;14.87;;;0.50;99.90;;;;;;4950110;28;20212;-60
2022/01/19 07:26:18;;;;;;;27.10;15.30;;;0.50;99.90;;;;;;4950713;28;20437;-59
2022/01/19 07:28:43;;;;;;;31.23;15.37;;;0.50;99.90;;;;;;4959453;28;20423;-59
2022/01/19 07:31:09;;;;;;;31.20;15.30;;;0.50;99.90;;;;;;4958403;28;20821;-59
2022/01/19 07:33:35;;;;;;;24.77;13.70;;;0.50;99.90;;;;;;4966484;28;20203;-57
2022/01/19 07:36:00;;;;;;;26.57;14.33;;;0.60;99.90;;;;;;4951803;29;20191;-59
2022/01/19 07:38:26;;;;;;;21.73;13.67;;;0.60;99.90;;;;;;4951284;28;20191;-59
2022/01/19 07:40:53;;;;;;;25.67;13.40;;;0.60;99.90;;;;;;4951246;28;20176;-59
2022/01/19 07:43:19;;;;;;;21.70;12.00;;;0.60;99.90;;;;;;4951685;28;20490;-59
2022/01/19 07:45:45;;;;;;;25.10;14.77;;;0.60;99.90;;;;;;4949707;29;20428;-60
2022/01/19 07:48:10;;;;;;;25.27;13.03;;;0.60;99.90;;;;;;4950197;29;20562;-60
2022/01/19 07:50:37;;;;;;;30.10;13.60;;;0.60;99.90;;;;;;4959891;28;20207;-59
2022/01/19 07:53:04;;;;;;;25.13;14.00;;;0.60;99.90;;;;;;4950903;28;20244;-59
2022/01/19 07:55:29;;;;;;;27.87;14.57;;;0.60;99.90;;;;;;4950498;28;20462;-61
2022/01/19 07:57:55;;;;;;;26.87;14.30;;;0.50;99.90;;;;;;4951195;29;20949;-58
2022/01/19 08:00:21;;;;;;;31.17;15.37;;;0.60;99.90;;;;;;4950902;28;20756;-58
2022/01/19 08:02:49;;;;;;;29.27;14.83;;;0.60;99.90;;;;;;4966049;28;20268;-59
2022/01/19 08:05:16;;;;;;;28.70;16.23;;;0.60;99.90;;;;;;4962241;28;20457;-58
2022/01/19 08:07:42;;;;;;;28.03;15.73;;;0.60;99.90;;;;;;4966263;28;20439;-58
2022/01/19 08:10:09;;;;;;;30.87;16.23;;;0.60;99.90;;;;;;4959022;28;20431;-59
2022/01/19 08:12:35;;;;;;;27.87;15.43;;;0.70;99.90;;;;;;4956024;28;20563;-60
2022/01/19 08:15:01;;;;;;;27.73;14.60;;;0.70;99.90;;;;;;4950919;28;20560;-60
2022/01/19 08:17:28;;;;;;;35.20;16.40;;;0.70;99.90;;;;;;4951010;28;20426;-59
2022/01/19 08:19:54;;;;;;;34.57;16.30;;;0.70;99.90;;;;;;4967390;28;20812;-59
2022/01/19 08:22:20;;;;;;;32.67;16.70;;;0.70;99.90;;;;;;4948983;29;20518;-59
2022/01/19 08:24:46;;;;;;;28.93;14.93;;;0.80;99.90;;;;;;4950839;28;20440;-59
2022/01/19 08:27:12;;;;;;;30.33;15.20;;;0.80;99.90;;;;;;4950888;28;20178;-59
2022/01/19 08:29:38;;;;;;;26.90;14.13;;;0.80;99.90;;;;;;4947815;28;20219;-58
2022/01/19 08:32:05;;;;;;;33.93;17.00;;;0.80;99.90;;;;;;4950699;29;20753;-59
2022/01/19 08:34:32;;;;;;;28.33;14.07;;;0.90;99.90;;;;;;4951579;29;20520;-60
2022/01/19 08:36:58;;;;;;;35.60;16.73;;;0.80;99.90;;;;;;4951087;29;20427;-59
2022/01/19 08:39:27;;;;;;;32.87;16.73;;;0.90;99.90;;;;;;4949952;28;20427;-59
2022/01/19 08:41:54;;;;;;;28.50;14.70;;;0.90;99.90;;;;;;4950693;28;20519;-59
2022/01/19 08:44:21;;;;;;;25.73;15.13;;;0.90;99.90;;;;;;4949266;28;20538;-60
2022/01/19 08:46:47;;;;;;;29.90;15.57;;;0.90;99.90;;;;;;4946592;29;20487;-59
2022/01/19 08:49:13;;;;;;;25.30;15.83;;;0.90;99.90;;;;;;4949791;28;20425;-59
2022/01/19 08:51:39;;;;;;;30.57;16.97;;;0.90;99.90;;;;;;4951275;28;20439;-57
2022/01/19 08:54:05;;;;;;;26.73;14.87;;;0.90;99.90;;;;;;4949932;28;20844;-60
2022/01/19 08:56:31;;;;;;;30.30;15.97;;;0.90;99.90;;;;;;4950536;28;20189;-60
2022/01/19 08:58:57;;;;;;;27.80;15.93;;;0.90;99.90;;;;;;4958500;28;20236;-60
2022/01/19 09:01:23;;;;;;;25.30;14.50;;;0.90;99.90;;;;;;4951591;28;20985;-59
2022/01/19 09:03:49;;;;;;;26.40;14.60;;;0.90;99.90;;;;;;4960664;28;20578;-59
2022/01/19 09:06:15;;;;;;;33.40;16.57;;;0.90;99.90;;;;;;4953904;28;20425;-58
2022/01/19 09:08:41;;;;;;;34.90;16.30;;;0.90;99.90;;;;;;4953123;28;20527;-60
2022/01/19 09:11:07;;;;;;;26.13;14.83;;;0.90;99.90;;;;;;4961671;28;20459;-61
2022/01/19 09:13:34;;;;;;;27.50;14.20;;;0.90;99.90;;;;;;4953863;28;20460;-61
2022/01/19 09:15:59;;;;;;;32.23;15.73;;;0.90;99.90;;;;;;4953765;28;20647;-60
2022/01/19 09:18:26;;;;;;;34.87;16.73;;;0.90;99.90;;;;;;4953937;28;21109;-60
2022/01/19 09:20:52;;;;;;;26.67;14.50;;;0.90;99.90;;;;;;4953645;28;20560;-60
2022/01/19 09:23:18;;;;;;;30.57;15.93;;;0.90;99.90;;;;;;4953114;28;21034;-60
2022/01/19 09:25:43;;;;;;;33.97;17.13;;;0.90;99.90;;;;;;4950247;29;21028;-60
2022/01/19 09:28:09;;;;;;;27.50;15.10;;;0.90;99.90;;;;;;4952474;28;20436;-60
2022/01/19 09:30:36;;;;;;;32.03;16.10;;;0.90;99.90;;;;;;4951357;28;20185;-60
2022/01/19 09:33:23;;;;;;;34.43;17.37;;;0.90;99.90;;;;;;4957428;28;20823;-60
2022/01/19 09:38:30;;;;;;;33.67;15.83;;;1.00;99.90;;;;;;4951633;29;20846;-59
2022/01/19 09:40:57;;;;;;;31.87;15.50;;;1.00;99.90;;;;;;4950936;28;20427;-60
2022/01/19 09:43:23;;;;;;;28.23;15.57;;;1.10;99.90;;;;;;4951837;28;20445;-61
2022/01/19 09:45:50;;;;;;;29.00;15.23;;;1.20;99.90;;;;;;4947428;28;20444;-60
2022/01/19 09:48:16;;;;;;;33.77;15.20;;;1.30;99.90;;;;;;4951585;28;20416;-60
2022/01/19 09:50:42;;;;;;;29.83;15.97;;;1.40;99.90;;;;;;4952240;28;20437;-61
2022/01/19 09:53:08;;;;;;;28.40;15.50;;;1.60;99.90;;;;;;4950968;28;21209;-59
2022/01/19 09:55:35;;;;;;;30.90;15.30;;;1.80;99.90;;;;;;4960339;28;20434;-60
2022/01/19 09:58:01;;;;;;;30.47;15.27;;;1.90;99.90;;;;;;4952316;29;20206;-60
2022/01/19 10:00:27;;;;;;;29.83;15.03;;;1.90;99.90;;;;;;4937554;28;20421;-60
2022/01/19 10:03:23;;;;;;;32.03;16.30;;;1.90;99.90;;;;;;4951755;29;20261;-60
2022/01/19 10:06:13;;;;;;;33.23;16.00;;;1.80;99.90;;;;;;4953047;28;20177;-58
2022/01/19 10:08:50;;;;;;;34.80;15.00;;;1.80;99.90;;;;;;4947084;29;20437;-60
2022/01/19 10:17:00;;;;;;;36.63;18.37;;;1.80;99.90;;;;;;4953088;28;20837;-60
2022/01/19 10:19:35;;;;;;;33.00;16.43;;;1.80;99.90;;;;;;4954735;28;21247;-58
2022/01/19 10:22:18;;;;;;;32.93;16.00;;;1.80;99.90;;;;;;4957790;28;20425;-60
2022/01/19 10:24:56;;;;;;;31.63;17.03;;;1.80;99.90;;;;;;4952643;28;20539;-60
2022/01/19 10:27:23;;;;;;;32.53;17.70;;;1.80;99.90;;;;;;4936624;29;20433;-60
2022/01/19 10:29:51;;;;;;;32.03;17.07;;;2.00;99.90;;;;;;4953095;28;20840;-60
2022/01/19 10:32:20;;;;;;;32.80;16.40;;;2.30;99.90;;;;;;4948585;28;20462;-59
2022/01/19 10:34:46;;;;;;;28.00;15.10;;;2.50;99.90;;;;;;4953591;28;20460;-60
2022/01/19 10:37:11;;;;;;;31.33;16.20;;;2.70;99.90;;;;;;4951206;29;20438;-60
2022/01/19 10:39:47;;;;;;;32.57;16.30;;;3.00;99.90;;;;;;4945255;28;20201;-60
2022/01/19 10:42:17;;;;;;;31.70;16.20;;;3.20;99.90;;;;;;4934115;29;20237;-61
2022/01/19 10:44:47;;;;;;;29.80;16.37;;;3.40;99.70;;;;;;4951658;29;20471;-59
2022/01/19 10:47:15;;;;;;;27.23;15.90;;;3.50;99.00;;;;;;4953127;28;20410;-59
2022/01/19 10:49:50;;;;;;;28.40;16.10;;;3.60;98.60;;;;;;4951594;28;20420;-60
2022/01/19 10:52:31;;;;;;;31.17;16.00;;;3.70;97.80;;;;;;4952662;29;21017;-60
2022/01/19 10:54:58;;;;;;;27.90;15.03;;;3.90;95.90;;;;;;4951890;28;20843;-60
2022/01/19 10:57:26;;;;;;;31.67;17.13;;;3.90;93.30;;;;;;4952796;29;20489;-59
2022/01/19 10:59:53;;;;;;;28.03;16.30;;;3.90;93.80;;;;;;4970311;28;20460;-60
2022/01/19 11:02:19;;;;;;;27.83;15.63;;;4.00;92.70;;;;;;4956726;28;20445;-60
2022/01/19 11:04:46;;;;;;;27.47;15.30;;;4.00;93.10;;;;;;4961174;28;20450;-60
2022/01/19 11:07:15;;;;;;;30.63;15.93;;;4.10;92.70;;;;;;4947587;28;20566;-61
2022/01/19 11:09:45;;;;;;;28.90;15.90;;;4.20;92.70;;;;;;4948046;28;20428;-59
2022/01/19 11:12:15;;;;;;;34.07;17.07;;;4.20;90.90;;;;;;4965425;28;20425;-61
2022/01/19 11:14:42;;;;;;;32.17;16.13;;;4.30;88.10;;;;;;4946895;28;20472;-60
2022/01/19 11:17:09;;;;;;;28.20;15.67;;;4.40;90.20;;;;;;4952245;28;20430;-61
2022/01/19 11:19:39;;;;;;;126.77;41.97;;;4.50;89.60;;;;;;4948914;28;20525;-60
2022/01/19 11:22:18;;;;;;;39.40;18.40;;;4.60;90.20;;;;;;4951085;28;21026;-60
2022/01/19 11:25:17;;;;;;;28.73;15.30;;;4.90;88.80;;;;;;4950258;28;20447;-62
2022/01/19 11:27:47;;;;;;;40.30;18.70;;;5.10;86.20;;;;;;4952062;28;20430;-61
2022/01/19 11:30:24;;;;;;;30.27;17.10;;;5.30;78.90;;;;;;4952570;28;20438;-61
2022/01/19 11:33:13;;;;;;;32.13;15.60;;;5.30;78.50;;;;;;4948920;28;20492;-61
2022/01/19 11:35:42;;;;;;;28.50;16.23;;;5.40;76.20;;;;;;4950019;28;20430;-60
2022/01/19 11:38:47;;;;;;;26.90;15.47;;;5.50;75.20;;;;;;4951686;29;20412;-61
2022/01/19 11:41:13;;;;;;;30.23;15.30;;;5.60;74.10;;;;;;4948736;28;20438;-61
2022/01/19 11:43:49;;;;;;;27.87;15.30;;;5.70;72.10;;;;;;4948035;28;20462;-60
2022/01/19 11:46:31;;;;;;;29.30;16.30;;;5.70;71.00;;;;;;4955930;28;20193;-61
2022/01/19 11:48:59;;;;;;;32.93;17.43;;;5.80;70.80;;;;;;4951845;28;20803;-62
2022/01/19 11:51:29;;;;;;;28.30;15.20;;;5.90;70.50;;;;;;4948946;28;20486;-62
2022/01/19 11:54:12;;;;;;;26.80;15.43;;;6.00;71.20;;;;;;4966506;28;20513;-61
2022/01/19 11:56:58;;;;;;;32.83;16.67;;;6.10;68.70;;;;;;4938979;29;21013;-61
2022/01/19 11:59:53;;;;;;;25.83;15.10;;;6.20;67.20;;;;;;4959867;28;20478;-60
2022/01/19 12:02:24;;;;;;;30.47;16.20;;;6.20;67.80;;;;;;4951696;29;20429;-61
2022/01/19 12:05:02;;;;;;;28.27;15.97;;;6.10;66.10;;;;;;4951325;28;20430;-61
2022/01/19 12:07:55;;;;;;;31.00;16.13;;;6.10;66.20;;;;;;4954952;28;20938;-61
2022/01/19 12:10:37;;;;;;;30.73;16.13;;;5.90;67.10;;;;;;4950946;28;20485;-61
2022/01/19 12:16:29;;;;;;;24.97;15.47;;;5.80;69.20;;;;;;4952218;28;20439;-61
2022/01/19 12:19:01;;;;;;;30.00;15.60;;;5.60;69.40;;;;;;4950333;28;20473;-62
2022/01/19 12:21:41;;;;;;;33.10;16.60;;;5.40;72.50;;;;;;4953193;28;20432;-61
2022/01/19 12:24:29;;;;;;;31.37;15.60;;;5.20;73.80;;;;;;4949434;28;20455;-61
2022/01/19 12:27:13;;;;;;;30.40;16.73;;;5.10;77.00;;;;;;4949822;28;20512;-61
2022/01/19 12:29:45;;;;;;;27.50;15.47;;;4.90;78.70;;;;;;4952568;28;20428;-62
2022/01/19 12:32:16;;;;;;;27.57;14.33;;;4.80;80.40;;;;;;4949534;28;20792;-58
2022/01/19 12:34:49;;;;;;;25.97;15.37;;;4.80;80.30;;;;;;4949720;28;20974;-60
2022/01/19 12:37:27;;;;;;;27.63;14.40;;;4.70;82.60;;;;;;4950513;28;20935;-59
2022/01/19 12:39:54;;;;;;;28.47;13.63;;;4.70;84.30;;;;;;4952342;28;20418;-59
2022/01/19 12:42:26;;;;;;;23.00;12.63;;;4.60;84.60;;;;;;4954501;28;20891;-58
2022/01/19 12:44:53;;;;;;;24.10;13.93;;;4.60;83.30;;;;;;4955103;28;20452;-60
2022/01/19 12:47:25;;;;;;;25.00;13.73;;;4.60;84.80;;;;;;4955715;28;20492;-60
2022/01/19 12:50:07;;;;;;;25.93;14.20;;;4.60;84.20;;;;;;4954114;28;20829;-57
2022/01/19 12:52:35;;;;;;;30.13;13.60;;;4.60;85.30;;;;;;4966494;28;20553;-58
2022/01/19 12:55:13;;;;;;;31.57;14.40;;;4.60;86.20;;;;;;4936039;29;20430;-59
2022/01/19 12:57:39;;;;;;;23.27;14.50;;;4.60;87.20;;;;;;4954003;28;20953;-59
2022/01/19 13:00:11;;;;;;;27.40;14.10;;;4.70;87.60;;;;;;4961823;28;20437;-59
2022/01/19 13:02:37;;;;;;;25.03;14.00;;;4.70;88.30;;;;;;4955051;28;20197;-59
2022/01/19 13:05:05;;;;;;;19.93;11.53;;;4.70;87.60;;;;;;4954799;28;20954;-60
2022/01/19 13:07:34;;;;;;;23.60;12.00;;;4.80;86.30;;;;;;4955257;28;20179;-60
2022/01/19 13:10:21;;;;;;;23.50;12.70;;;4.80;85.80;;;;;;4951455;28;20512;-59
2022/01/19 13:15:54;;;;;;;19.43;11.27;;;4.90;84.40;;;;;;4950562;29;20417;-58
2022/01/19 13:18:42;;;;;;;20.30;11.23;;;4.90;84.80;;;;;;4948150;29;20781;-59
2022/01/19 13:21:17;;;;;;;22.17;10.93;;;5.00;85.40;;;;;;4946832;29;20431;-59
2022/01/19 13:24:14;;;;;;;22.53;9.73;;;5.10;86.50;;;;;;4947959;28;20442;-60
2022/01/19 13:26:42;;;;;;;16.23;8.20;;;5.20;88.80;;;;;;4944428;29;20887;-60
2022/01/19 13:29:23;;;;;;;17.80;8.33;;;5.40;87.40;;;;;;4946044;29;20517;-60
2022/01/19 13:31:58;;;;;;;11.57;7.17;;;5.50;82.00;;;;;;4948160;28;20426;-59
2022/01/19 13:34:25;;;;;;;12.43;6.70;;;5.60;75.70;;;;;;4946082;28;20543;-60
2022/01/19 13:36:59;;;;;;;12.77;6.70;;;5.60;75.20;;;;;;4946089;29;20439;-59
2022/01/19 13:39:28;;;;;;;10.73;6.87;;;5.60;74.80;;;;;;4946003;29;20433;-60
2022/01/19 13:41:57;;;;;;;11.50;6.50;;;5.40;73.50;;;;;;4961193;28;20471;-60
2022/01/19 13:44:26;;;;;;;10.33;5.63;;;5.40;75.20;;;;;;4951782;28;20465;-60
2022/01/19 13:47:08;;;;;;;10.60;5.97;;;5.50;74.40;;;;;;4948634;28;20457;-59
2022/01/19 13:49:34;;;;;;;14.60;6.90;;;5.60;74.80;;;;;;4947971;28;20433;-59
2022/01/19 13:52:00;;;;;;;8.07;5.63;;;5.80;74.20;;;;;;4946810;28;20806;-60
2022/01/19 13:54:26;;;;;;;10.50;6.77;;;6.00;72.00;;;;;;4943379;28;20214;-60
2022/01/19 13:56:59;;;;;;;11.43;6.27;;;6.30;70.10;;;;;;4945051;28;20210;-60
2022/01/19 13:59:25;;;;;;;9.10;5.40;;;6.50;67.70;;;;;;4948120;28;20422;-61
2022/01/19 14:02:00;;;;;;;11.37;5.40;;;6.80;66.00;;;;;;4948839;28;20434;-59
2022/01/19 14:04:28;;;;;;;7.57;5.30;;;7.00;63.70;;;;;;4946238;28;20553;-61
2022/01/19 14:07:06;;;;;;;8.83;4.90;;;7.30;62.60;;;;;;4951012;28;20436;-60
2022/01/19 14:09:34;;;;;;;8.83;4.93;;;7.50;60.90;;;;;;4948315;28;20434;-60
2022/01/19 14:12:16;;;;;;;9.50;5.03;;;7.60;59.60;;;;;;4949888;28;20438;-60
2022/01/19 14:14:56;;;;;;;7.23;4.90;;;7.60;59.10;;;;;;4950257;28;20458;-61
2022/01/19 14:17:36;;;;;;;8.30;5.23;;;7.40;58.80;;;;;;4951069;28;20435;-59
2022/01/19 14:20:04;;;;;;;10.13;5.13;;;7.10;58.80;;;;;;4950556;28;20934;-61